Time;durP1;ratioP1;P1;durP2;ratioP2;P2;SDS_P1;SDS_P2;PMS_P1;PMS_P2;Temp;Humidity;BMP_temperature;BMP_pressure;BME280_temperature;BME280_humidity;BME280_pressure;Samples;Min_cycle;Max_cycle;Signal;HPM_P1;HPM_P2
2020/12/08 00:00:09;;;;;;;15.97;9.37;;;3.70;99.90;;;;;;5029603;28;20203;-57
2020/12/08 00:02:36;;;;;;;16.37;10.17;;;3.60;99.90;;;;;;5025534;28;20228;-55
2020/12/08 00:05:03;;;;;;;16.23;9.70;;;3.60;99.90;;;;;;5025534;28;20203;-55
2020/12/08 00:07:29;;;;;;;17.00;10.13;;;3.70;99.90;;;;;;5025773;28;20889;-55
2020/12/08 00:09:55;;;;;;;15.90;9.47;;;3.70;99.90;;;;;;5029050;28;20232;-58
2020/12/08 00:12:25;;;;;;;17.17;10.43;;;3.60;99.90;;;;;;5026028;28;20230;-57
2020/12/08 00:14:51;;;;;;;14.83;9.67;;;3.70;99.90;;;;;;5028701;28;20203;-54
2020/12/08 00:17:18;;;;;;;16.23;10.17;;;3.70;99.90;;;;;;5023411;28;20682;-57
2020/12/08 00:19:45;;;;;;;15.03;9.30;;;3.70;99.90;;;;;;5022184;28;20673;-56
2020/12/08 00:22:11;;;;;;;15.50;9.47;;;3.60;99.90;;;;;;5025457;28;20683;-51
2020/12/08 00:24:38;;;;;;;15.43;10.00;;;3.60;99.90;;;;;;5026478;28;20591;-55
2020/12/08 00:27:04;;;;;;;17.57;10.47;;;3.50;99.90;;;;;;5028989;28;20681;-54
2020/12/08 00:29:31;;;;;;;16.27;9.67;;;3.50;99.90;;;;;;5024441;28;20227;-54
2020/12/08 00:31:57;;;;;;;18.30;10.50;;;3.50;99.90;;;;;;5025785;28;20200;-55
2020/12/08 00:34:24;;;;;;;18.17;10.70;;;3.40;99.90;;;;;;5019830;28;20203;-54
2020/12/08 00:36:50;;;;;;;16.83;10.57;;;3.30;99.90;;;;;;5026996;28;20208;-57
2020/12/08 00:39:16;;;;;;;17.37;10.40;;;3.40;99.90;;;;;;5027117;28;20195;-53
2020/12/08 00:41:43;;;;;;;18.30;11.17;;;3.30;99.90;;;;;;5021186;28;20584;-55
2020/12/08 00:44:09;;;;;;;18.27;11.27;;;3.40;99.90;;;;;;5016266;28;20216;-57
2020/12/08 00:46:35;;;;;;;18.97;11.57;;;3.30;99.90;;;;;;5026697;28;20212;-56
2020/12/08 00:49:02;;;;;;;20.93;12.10;;;3.30;99.90;;;;;;5026556;28;20219;-56
2020/12/08 00:51:29;;;;;;;20.57;11.90;;;3.20;99.90;;;;;;5029700;28;20210;-56
2020/12/08 00:53:55;;;;;;;20.73;12.27;;;3.20;99.90;;;;;;5028955;28;20223;-52
2020/12/08 00:56:21;;;;;;;22.13;13.37;;;3.20;99.90;;;;;;5029435;28;20693;-53
2020/12/08 00:58:48;;;;;;;22.23;13.07;;;3.30;99.90;;;;;;5030898;28;20200;-57
2020/12/08 01:01:14;;;;;;;22.43;13.07;;;3.40;99.90;;;;;;5032328;28;20204;-54
2020/12/08 01:03:40;;;;;;;23.90;13.67;;;3.50;99.90;;;;;;5025745;28;20219;-55
2020/12/08 01:06:09;;;;;;;22.43;13.87;;;3.50;99.90;;;;;;5022684;28;20664;-55
2020/12/08 01:08:36;;;;;;;20.90;12.47;;;3.50;99.90;;;;;;5025747;28;20220;-55
2020/12/08 01:11:03;;;;;;;22.93;12.97;;;3.60;99.90;;;;;;5025337;28;20218;-56
2020/12/08 01:13:34;;;;;;;20.17;12.70;;;3.60;99.90;;;;;;5023767;28;20223;-57
2020/12/08 01:16:01;;;;;;;21.40;12.87;;;3.60;99.90;;;;;;5033428;28;20318;-55
2020/12/08 01:18:28;;;;;;;23.93;13.40;;;3.60;99.90;;;;;;5026185;28;20204;-57
2020/12/08 01:20:55;;;;;;;21.37;13.13;;;3.50;99.90;;;;;;5028298;28;20604;-50
2020/12/08 01:23:22;;;;;;;20.43;12.70;;;3.50;99.90;;;;;;5025918;28;20231;-56
2020/12/08 01:25:50;;;;;;;21.00;12.17;;;3.50;99.90;;;;;;5027810;28;20207;-55
2020/12/08 01:28:17;;;;;;;19.60;12.33;;;3.50;99.90;;;;;;5029232;28;20216;-53
2020/12/08 01:30:43;;;;;;;20.40;11.87;;;3.50;99.90;;;;;;5033023;28;20208;-57
2020/12/08 01:33:10;;;;;;;23.00;12.03;;;3.50;99.90;;;;;;5026018;28;20577;-51
2020/12/08 01:35:36;;;;;;;20.23;12.40;;;3.50;99.90;;;;;;5030715;28;20208;-57
2020/12/08 01:38:03;;;;;;;18.87;11.63;;;3.50;99.90;;;;;;5030358;28;20211;-56
2020/12/08 01:40:29;;;;;;;21.17;11.77;;;3.50;99.90;;;;;;5031455;28;20250;-57
2020/12/08 01:42:57;;;;;;;20.60;12.67;;;3.50;99.90;;;;;;5031733;28;20231;-55
2020/12/08 01:45:23;;;;;;;19.23;11.83;;;3.50;99.90;;;;;;5025017;28;20225;-56
2020/12/08 01:47:49;;;;;;;18.87;12.07;;;3.50;99.90;;;;;;5032766;28;20219;-58
2020/12/08 01:50:17;;;;;;;18.57;12.43;;;3.50;99.90;;;;;;5027868;28;20583;-58
2020/12/08 01:52:44;;;;;;;18.73;11.67;;;3.50;99.90;;;;;;5019521;28;20700;-52
2020/12/08 01:55:14;;;;;;;19.93;12.00;;;3.50;99.90;;;;;;5023250;28;20210;-52
2020/12/08 01:57:41;;;;;;;19.77;12.27;;;3.50;99.90;;;;;;5023091;28;20206;-51
2020/12/08 02:00:08;;;;;;;18.73;11.83;;;3.40;99.90;;;;;;5034367;28;20210;-54
2020/12/08 02:02:35;;;;;;;20.73;12.53;;;3.30;99.90;;;;;;5023349;28;20222;-55
2020/12/08 02:05:01;;;;;;;18.57;11.83;;;3.20;99.90;;;;;;5033803;28;20200;-51
2020/12/08 02:07:28;;;;;;;20.37;12.23;;;3.20;99.90;;;;;;5033581;28;20200;-55
2020/12/08 02:09:54;;;;;;;20.83;12.47;;;3.20;99.90;;;;;;5033553;28;20196;-55
2020/12/08 02:12:21;;;;;;;21.00;11.87;;;3.30;99.90;;;;;;5033037;28;20298;-52
2020/12/08 02:14:47;;;;;;;21.13;12.63;;;3.40;99.90;;;;;;5033840;28;20199;-49
2020/12/08 02:17:14;;;;;;;20.67;12.33;;;3.30;99.90;;;;;;5033740;28;20200;-50
2020/12/08 02:19:43;;;;;;;22.27;12.90;;;3.20;99.90;;;;;;5033730;28;20191;-50
2020/12/08 02:22:11;;;;;;;22.17;13.13;;;3.20;99.90;;;;;;5033117;28;20234;-50
2020/12/08 02:24:37;;;;;;;25.37;14.10;;;3.20;99.90;;;;;;5033233;28;20202;-49
2020/12/08 02:27:04;;;;;;;24.30;13.10;;;3.20;99.90;;;;;;5033777;28;20212;-52
2020/12/08 02:29:30;;;;;;;22.77;12.80;;;3.30;99.90;;;;;;5028126;28;20232;-50
2020/12/08 02:31:56;;;;;;;21.80;13.03;;;3.40;99.90;;;;;;5031800;28;20210;-57
2020/12/08 02:34:22;;;;;;;23.77;13.10;;;3.30;99.90;;;;;;5031749;28;20581;-55
2020/12/08 02:36:58;;;;;;;23.10;13.73;;;3.30;99.90;;;;;;5033470;28;20204;-54
2020/12/08 02:39:26;;;;;;;23.13;13.50;;;3.30;99.90;;;;;;5024237;28;20192;-56
2020/12/08 02:41:53;;;;;;;22.07;12.23;;;3.40;99.90;;;;;;5018318;28;20232;-55
2020/12/08 02:44:19;;;;;;;21.20;12.30;;;3.40;99.90;;;;;;5018020;28;20228;-52
2020/12/08 02:46:50;;;;;;;22.73;12.90;;;3.40;99.90;;;;;;5015866;28;20208;-51
2020/12/08 02:49:17;;;;;;;20.47;12.27;;;3.40;99.90;;;;;;5013884;28;20243;-50
2020/12/08 02:51:44;;;;;;;21.00;12.50;;;3.40;99.90;;;;;;5021139;28;20666;-54
2020/12/08 02:54:11;;;;;;;19.90;12.10;;;3.40;99.90;;;;;;5024046;28;20223;-52
2020/12/08 02:56:38;;;;;;;19.73;11.73;;;3.40;99.90;;;;;;5032638;28;20631;-56
2020/12/08 02:59:04;;;;;;;22.27;13.13;;;3.40;99.90;;;;;;5032862;28;20210;-51
2020/12/08 03:01:30;;;;;;;26.93;13.53;;;3.40;99.90;;;;;;5021674;28;20208;-49
2020/12/08 03:03:57;;;;;;;24.33;14.20;;;3.40;99.90;;;;;;5020475;28;20236;-53
2020/12/08 03:06:23;;;;;;;24.53;13.60;;;3.40;99.90;;;;;;5032173;28;20206;-53
2020/12/08 03:08:49;;;;;;;25.67;15.20;;;3.30;99.90;;;;;;5039030;28;20217;-54
2020/12/08 03:11:16;;;;;;;23.20;13.30;;;3.20;99.90;;;;;;5043867;28;20237;-56
2020/12/08 03:13:43;;;;;;;27.10;14.70;;;3.30;99.90;;;;;;5039794;28;20220;-54
2020/12/08 03:16:10;;;;;;;24.30;14.40;;;3.30;99.90;;;;;;5036097;28;20214;-57
2020/12/08 03:18:40;;;;;;;22.20;12.73;;;3.40;99.90;;;;;;5040899;28;20223;-56
2020/12/08 03:21:06;;;;;;;23.13;13.47;;;3.40;99.90;;;;;;5033726;28;20235;-56
2020/12/08 03:23:35;;;;;;;22.07;12.50;;;3.40;99.90;;;;;;5033703;28;20231;-57
2020/12/08 03:26:01;;;;;;;23.50;13.37;;;3.40;99.90;;;;;;5033232;28;20554;-58
2020/12/08 03:28:27;;;;;;;22.63;13.17;;;3.40;99.90;;;;;;5032632;28;20220;-55
2020/12/08 03:30:55;;;;;;;23.20;13.77;;;3.40;99.90;;;;;;5023485;28;20218;-52
2020/12/08 03:33:21;;;;;;;24.57;13.30;;;3.40;99.90;;;;;;5022446;28;20224;-53
2020/12/08 03:35:47;;;;;;;26.47;13.87;;;3.40;99.90;;;;;;5019497;28;21292;-54
2020/12/08 03:38:14;;;;;;;21.70;12.40;;;3.40;99.90;;;;;;5019123;28;20215;-52
2020/12/08 03:40:40;;;;;;;22.60;12.43;;;3.40;99.90;;;;;;5022929;28;20200;-54
2020/12/08 03:43:06;;;;;;;21.70;12.87;;;3.40;99.90;;;;;;5021861;28;20228;-55
2020/12/08 03:45:33;;;;;;;25.33;13.17;;;3.40;99.90;;;;;;5025599;28;20678;-52
2020/12/08 03:48:00;;;;;;;22.43;12.53;;;3.40;99.90;;;;;;5022963;28;20234;-56
2020/12/08 03:50:26;;;;;;;21.07;13.00;;;3.30;99.90;;;;;;5023071;28;20199;-53
2020/12/08 03:52:53;;;;;;;23.40;12.73;;;3.20;99.90;;;;;;5024062;28;20223;-54
2020/12/08 03:55:19;;;;;;;21.60;12.70;;;3.10;99.90;;;;;;5024112;28;20222;-50
2020/12/08 03:57:45;;;;;;;22.17;13.03;;;3.10;99.90;;;;;;5032771;28;20218;-55
2020/12/08 04:00:11;;;;;;;22.33;12.50;;;3.10;99.90;;;;;;5035091;28;20203;-56
2020/12/08 04:02:38;;;;;;;21.90;12.63;;;3.10;99.90;;;;;;5023959;28;20582;-51
2020/12/08 04:05:05;;;;;;;26.40;13.83;;;3.10;99.90;;;;;;5030736;28;20203;-55
2020/12/08 04:07:31;;;;;;;24.87;14.40;;;3.20;99.90;;;;;;5016391;28;20663;-57
2020/12/08 04:09:58;;;;;;;23.53;13.07;;;3.20;99.90;;;;;;5034844;28;20223;-53
2020/12/08 04:12:24;;;;;;;21.00;11.97;;;3.20;99.90;;;;;;5029073;28;20238;-51
2020/12/08 04:14:50;;;;;;;22.80;12.43;;;3.10;99.90;;;;;;5031198;28;20200;-56
2020/12/08 04:17:20;;;;;;;20.70;12.03;;;3.10;99.90;;;;;;5031851;28;20207;-53
2020/12/08 04:19:46;;;;;;;21.70;12.43;;;3.10;99.90;;;;;;5030899;28;20203;-57
2020/12/08 04:22:14;;;;;;;20.33;11.53;;;3.00;99.90;;;;;;5047309;28;20195;-54
2020/12/08 04:24:40;;;;;;;22.03;11.77;;;3.10;99.90;;;;;;5037405;28;20199;-49
2020/12/08 04:27:06;;;;;;;21.27;12.43;;;3.10;99.90;;;;;;5051469;28;20213;-55
2020/12/08 04:29:33;;;;;;;18.93;11.27;;;3.20;99.90;;;;;;5037678;28;20216;-54
2020/12/08 04:31:59;;;;;;;21.03;12.30;;;3.20;99.90;;;;;;5035105;28;20192;-54
2020/12/08 04:34:25;;;;;;;20.70;12.30;;;3.20;99.90;;;;;;5034441;28;20693;-52
2020/12/08 04:36:51;;;;;;;24.70;12.00;;;3.20;99.90;;;;;;5031358;28;20211;-51
2020/12/08 04:39:19;;;;;;;20.23;11.93;;;3.10;99.90;;;;;;5027798;28;20557;-52
2020/12/08 04:41:45;;;;;;;21.37;12.50;;;3.10;99.90;;;;;;5035755;28;20211;-54
2020/12/08 04:44:12;;;;;;;21.17;12.10;;;3.10;99.90;;;;;;5030579;28;20222;-49
2020/12/08 04:46:39;;;;;;;20.23;11.57;;;3.10;99.90;;;;;;5031730;28;20203;-52
2020/12/08 04:49:06;;;;;;;19.70;11.60;;;3.10;99.90;;;;;;5038452;28;20225;-54
2020/12/08 04:51:38;;;;;;;19.37;11.43;;;3.00;99.90;;;;;;5038362;28;20203;-52
2020/12/08 04:54:05;;;;;;;18.50;10.77;;;3.00;99.90;;;;;;5046024;28;20619;-54
2020/12/08 04:56:33;;;;;;;19.77;11.23;;;3.00;99.90;;;;;;5030937;28;20212;-52
2020/12/08 04:58:59;;;;;;;18.63;10.77;;;2.90;99.90;;;;;;5025216;28;20196;-54
2020/12/08 05:01:27;;;;;;;22.03;11.63;;;3.00;99.90;;;;;;5023692;28;20200;-49
2020/12/08 05:03:57;;;;;;;21.83;12.13;;;3.00;99.90;;;;;;5021666;28;20223;-53
2020/12/08 05:06:23;;;;;;;20.27;11.30;;;3.00;99.90;;;;;;5024387;28;20204;-54
2020/12/08 05:09:00;;;;;;;20.73;11.50;;;3.10;99.90;;;;;;5023903;28;20231;-55
2020/12/08 05:11:27;;;;;;;20.53;11.10;;;3.00;99.90;;;;;;5023930;28;20564;-55
2020/12/08 05:14:01;;;;;;;21.30;12.53;;;3.00;99.90;;;;;;5028496;28;20590;-52
2020/12/08 05:16:27;;;;;;;21.30;11.93;;;3.00;99.90;;;;;;5029470;28;20206;-53
2020/12/08 05:19:04;;;;;;;20.33;11.70;;;3.00;99.90;;;;;;5022721;28;20648;-52
2020/12/08 05:21:31;;;;;;;21.53;12.10;;;3.00;99.90;;;;;;5021356;28;20199;-54
2020/12/08 05:23:57;;;;;;;21.90;11.50;;;2.90;99.90;;;;;;5031106;28;20242;-51
2020/12/08 05:26:23;;;;;;;23.13;12.17;;;2.90;99.90;;;;;;5032831;28;20233;-50
2020/12/08 05:29:00;;;;;;;20.10;11.87;;;2.90;99.90;;;;;;5030185;28;20246;-54
2020/12/08 05:31:27;;;;;;;21.13;11.40;;;2.90;99.90;;;;;;5025299;28;20281;-54
2020/12/08 05:33:58;;;;;;;23.37;12.13;;;2.90;99.90;;;;;;5034384;28;20223;-51
2020/12/08 05:36:27;;;;;;;21.27;11.97;;;2.90;99.90;;;;;;5026524;28;20208;-49
2020/12/08 05:38:58;;;;;;;21.67;11.43;;;2.80;99.90;;;;;;5033404;28;20198;-53
2020/12/08 05:41:29;;;;;;;21.70;12.57;;;2.80;99.90;;;;;;5033934;28;20204;-51
2020/12/08 05:44:04;;;;;;;18.53;10.80;;;2.90;99.90;;;;;;5032550;28;20307;-51
2020/12/08 05:46:41;;;;;;;20.83;11.57;;;2.80;99.90;;;;;;5027399;28;20226;-51
2020/12/08 05:49:10;;;;;;;24.67;12.10;;;2.90;99.90;;;;;;5028932;28;20227;-50
2020/12/08 05:51:41;;;;;;;20.20;11.00;;;2.90;99.90;;;;;;5031545;28;20204;-56
2020/12/08 05:54:11;;;;;;;20.10;11.63;;;3.00;99.90;;;;;;5027547;28;20230;-49
2020/12/08 05:56:37;;;;;;;19.40;11.67;;;3.00;99.90;;;;;;5030323;28;20733;-54
2020/12/08 05:59:04;;;;;;;20.37;11.63;;;3.00;99.90;;;;;;5022504;28;20575;-53
2020/12/08 06:01:31;;;;;;;21.03;11.50;;;3.00;99.90;;;;;;5018615;28;20677;-54
2020/12/08 06:03:57;;;;;;;21.03;11.80;;;3.00;99.90;;;;;;5015301;28;20722;-50
2020/12/08 06:06:23;;;;;;;21.07;12.03;;;3.10;99.90;;;;;;5027461;28;20200;-55
2020/12/08 06:08:50;;;;;;;23.87;12.40;;;3.10;99.90;;;;;;5019474;28;20707;-49
2020/12/08 06:11:17;;;;;;;21.70;12.67;;;3.10;99.90;;;;;;5019036;28;20528;-53
2020/12/08 06:13:47;;;;;;;22.13;12.37;;;3.10;99.90;;;;;;5016714;28;20222;-52
2020/12/08 06:16:15;;;;;;;23.90;13.40;;;3.10;99.90;;;;;;5021831;28;20295;-52
2020/12/08 06:18:42;;;;;;;23.37;13.03;;;3.10;99.90;;;;;;5017544;28;20226;-56
2020/12/08 06:21:20;;;;;;;22.97;12.80;;;3.20;99.90;;;;;;5017071;28;20212;-54
2020/12/08 06:23:47;;;;;;;23.37;12.57;;;3.20;99.90;;;;;;5030485;28;20227;-54
2020/12/08 06:26:20;;;;;;;22.90;12.30;;;3.30;99.90;;;;;;5031016;28;20195;-53
2020/12/08 06:28:46;;;;;;;25.83;12.93;;;3.20;99.90;;;;;;5029941;28;20590;-51
2020/12/08 06:31:14;;;;;;;22.73;12.97;;;3.30;99.90;;;;;;5030856;28;20628;-55
2020/12/08 06:33:48;;;;;;;25.13;14.13;;;3.20;99.90;;;;;;5041127;28;20219;-54
2020/12/08 06:36:15;;;;;;;23.40;13.47;;;3.20;99.90;;;;;;5029092;28;20203;-54
2020/12/08 06:38:41;;;;;;;23.80;13.13;;;3.20;99.90;;;;;;5040375;28;20214;-54
2020/12/08 06:41:08;;;;;;;23.50;13.77;;;3.20;99.90;;;;;;5019449;28;20226;-49
2020/12/08 06:43:41;;;;;;;27.37;14.07;;;3.10;99.90;;;;;;5029933;28;20230;-51
2020/12/08 06:46:08;;;;;;;25.20;14.50;;;3.10;99.90;;;;;;5025370;28;20216;-52
2020/12/08 06:48:36;;;;;;;25.10;14.40;;;3.20;99.90;;;;;;5027204;28;20570;-52
2020/12/08 06:51:04;;;;;;;24.70;13.70;;;3.30;99.90;;;;;;5029456;28;20207;-55
2020/12/08 06:53:30;;;;;;;23.67;13.60;;;3.10;99.90;;;;;;5039140;28;20702;-54
2020/12/08 06:55:57;;;;;;;24.77;13.60;;;3.20;99.90;;;;;;5024168;28;20218;-51
2020/12/08 06:58:23;;;;;;;24.70;13.57;;;3.20;99.90;;;;;;5026998;28;20219;-51
2020/12/08 07:00:49;;;;;;;24.57;13.93;;;3.20;99.90;;;;;;5023471;28;20256;-50
2020/12/08 07:03:17;;;;;;;20.77;12.43;;;3.30;99.90;;;;;;5028029;28;20785;-50
2020/12/08 07:05:44;;;;;;;23.50;13.33;;;3.20;99.90;;;;;;5038272;28;20206;-53
2020/12/08 07:08:15;;;;;;;23.80;13.70;;;3.30;99.90;;;;;;5014432;28;20291;-51
2020/12/08 07:10:43;;;;;;;21.53;12.23;;;3.30;99.90;;;;;;5026408;28;20203;-49
2020/12/08 07:13:11;;;;;;;23.63;13.70;;;3.30;99.90;;;;;;5028899;28;20304;-52
2020/12/08 07:15:38;;;;;;;24.73;13.27;;;3.20;99.90;;;;;;5021479;28;20216;-57
2020/12/08 07:18:05;;;;;;;22.40;12.80;;;3.20;99.90;;;;;;5018509;28;20294;-53
2020/12/08 07:20:32;;;;;;;22.43;13.57;;;3.20;99.90;;;;;;5036145;28;20683;-50
2020/12/08 07:23:02;;;;;;;23.30;12.83;;;3.30;99.90;;;;;;5043303;28;20237;-55
2020/12/08 07:25:29;;;;;;;22.53;13.27;;;3.20;99.90;;;;;;5032526;28;20195;-54
2020/12/08 07:27:55;;;;;;;24.30;13.80;;;3.20;99.90;;;;;;5034530;28;20633;-52
2020/12/08 07:30:23;;;;;;;23.07;13.33;;;3.20;99.90;;;;;;5041301;28;20363;-55
2020/12/08 07:32:50;;;;;;;23.67;13.17;;;3.20;99.90;;;;;;5032131;28;20215;-55
2020/12/08 07:35:24;;;;;;;26.43;14.13;;;3.20;99.90;;;;;;5033286;28;20206;-50
2020/12/08 07:37:52;;;;;;;23.27;13.10;;;3.10;99.90;;;;;;5032259;28;20675;-49
2020/12/08 07:40:20;;;;;;;25.50;14.70;;;3.10;99.90;;;;;;5031996;28;20188;-53
2020/12/08 07:42:48;;;;;;;25.80;13.87;;;3.10;99.90;;;;;;5031553;28;20722;-51
2020/12/08 07:45:15;;;;;;;24.37;14.07;;;3.20;99.90;;;;;;5032188;28;20663;-55
2020/12/08 07:47:41;;;;;;;26.27;13.47;;;3.20;99.90;;;;;;5032141;28;20561;-49
2020/12/08 07:50:08;;;;;;;25.20;14.27;;;3.10;99.90;;;;;;5032530;28;20224;-56
2020/12/08 07:52:34;;;;;;;24.10;13.70;;;3.20;99.90;;;;;;5048080;28;20301;-50
2020/12/08 07:55:00;;;;;;;25.43;14.57;;;3.30;99.90;;;;;;5027217;28;20821;-52
2020/12/08 07:57:27;;;;;;;27.27;14.93;;;3.20;99.90;;;;;;5033761;28;20203;-53
2020/12/08 07:59:54;;;;;;;26.73;15.10;;;3.30;99.90;;;;;;5025140;28;20206;-54
2020/12/08 08:02:20;;;;;;;25.23;14.53;;;3.30;99.90;;;;;;5032802;28;20212;-52
2020/12/08 08:04:46;;;;;;;26.47;14.57;;;3.30;99.90;;;;;;5030932;28;20685;-52
2020/12/08 08:07:13;;;;;;;24.13;14.03;;;3.40;99.90;;;;;;5032732;28;20209;-52
2020/12/08 08:09:39;;;;;;;25.37;14.13;;;3.40;99.90;;;;;;5030434;28;20248;-54
2020/12/08 08:12:05;;;;;;;23.50;14.53;;;3.40;99.90;;;;;;5029229;28;20471;-54
2020/12/08 08:14:32;;;;;;;24.67;14.60;;;3.50;99.90;;;;;;5030777;28;20306;-57
2020/12/08 08:16:59;;;;;;;24.13;13.60;;;3.50;99.90;;;;;;5032160;28;20218;-50
2020/12/08 08:19:25;;;;;;;24.67;13.87;;;3.50;99.90;;;;;;5042960;28;20215;-55
2020/12/08 08:21:51;;;;;;;25.57;13.87;;;3.40;99.90;;;;;;5048826;28;20201;-52
2020/12/08 08:24:17;;;;;;;25.63;13.83;;;3.60;99.90;;;;;;5051596;28;20230;-51
2020/12/08 08:26:44;;;;;;;26.23;14.37;;;3.80;99.90;;;;;;5037951;28;20206;-52
2020/12/08 08:29:10;;;;;;;24.90;15.13;;;3.90;99.90;;;;;;5038344;28;20258;-54
2020/12/08 08:31:37;;;;;;;27.33;15.17;;;4.00;99.90;;;;;;5032282;28;20203;-51
2020/12/08 08:34:04;;;;;;;25.60;14.67;;;4.30;99.90;;;;;;5048877;28;20225;-52
2020/12/08 08:36:30;;;;;;;24.87;14.27;;;4.40;99.90;;;;;;5013313;28;20233;-53
2020/12/08 08:38:56;;;;;;;26.70;14.67;;;4.30;99.90;;;;;;5025799;28;20201;-50
2020/12/08 08:41:23;;;;;;;25.87;14.47;;;4.20;99.90;;;;;;5032259;28;20666;-53
2020/12/08 08:43:49;;;;;;;22.70;13.83;;;4.20;99.90;;;;;;5032248;28;20257;-54
2020/12/08 08:46:16;;;;;;;23.87;13.93;;;4.10;99.90;;;;;;5029567;28;20199;-56
2020/12/08 08:48:43;;;;;;;24.67;14.40;;;3.90;99.90;;;;;;5031487;28;20215;-50
2020/12/08 08:51:09;;;;;;;24.53;14.67;;;3.90;99.90;;;;;;5031092;28;20203;-53
2020/12/08 08:53:37;;;;;;;22.83;13.47;;;3.80;99.90;;;;;;5042124;28;20226;-56
2020/12/08 08:56:03;;;;;;;23.27;13.93;;;3.80;99.90;;;;;;5031447;28;20199;-52
2020/12/08 08:58:29;;;;;;;23.57;14.27;;;3.80;99.90;;;;;;5031145;28;20208;-49
2020/12/08 09:00:57;;;;;;;24.67;14.30;;;3.60;99.90;;;;;;5031426;28;20207;-52
2020/12/08 09:03:23;;;;;;;26.33;15.60;;;3.50;99.90;;;;;;5031232;28;20724;-52
2020/12/08 09:05:51;;;;;;;27.73;15.37;;;3.50;99.90;;;;;;5038799;28;20199;-54
2020/12/08 09:08:17;;;;;;;28.03;16.30;;;3.50;99.90;;;;;;5023865;28;20685;-51
2020/12/08 09:24:46;;;;;;;29.03;17.87;;;3.90;99.90;;;;;;6230549;22;777414;-51
2020/12/08 09:27:13;;;;;;;28.87;17.00;;;4.30;99.90;;;;;;6251892;23;20178;-58
2020/12/08 09:29:40;;;;;;;29.93;16.47;;;4.50;99.90;;;;;;6252411;23;20728;-57
2020/12/08 09:32:07;;;;;;;31.47;17.30;;;4.80;99.90;;;;;;6252781;23;20177;-58
2020/12/08 09:34:33;;;;;;;30.07;17.30;;;4.70;99.90;;;;;;6252044;22;20197;-56
2020/12/08 09:37:00;;;;;;;29.97;18.13;;;4.70;99.90;;;;;;6252231;23;20431;-53
2020/12/08 09:39:26;;;;;;;30.83;16.83;;;4.60;99.90;;;;;;6252797;23;20630;-54
2020/12/08 09:41:54;;;;;;;30.50;18.13;;;4.40;99.90;;;;;;6252785;23;20511;-58
2020/12/08 09:44:21;;;;;;;29.87;17.17;;;4.40;99.90;;;;;;6252012;22;20751;-56
2020/12/08 09:46:47;;;;;;;27.13;15.60;;;4.50;99.90;;;;;;6251828;23;20520;-55
2020/12/08 09:49:14;;;;;;;29.93;17.00;;;4.40;99.90;;;;;;6252659;23;20174;-56
2020/12/08 09:51:41;;;;;;;29.27;16.30;;;4.50;99.90;;;;;;6252851;23;20265;-57
2020/12/08 09:54:08;;;;;;;30.80;16.70;;;4.60;99.90;;;;;;6252186;22;20208;-56
2020/12/08 09:56:34;;;;;;;30.63;17.97;;;4.50;99.90;;;;;;6251593;23;20180;-57
2020/12/08 09:59:01;;;;;;;29.23;16.40;;;4.60;99.90;;;;;;6252466;23;20253;-59
2020/12/08 10:01:28;;;;;;;32.67;17.87;;;4.60;99.90;;;;;;6253131;23;20180;-57
2020/12/08 10:03:54;;;;;;;29.43;16.27;;;4.60;99.90;;;;;;6252279;22;20204;-56
2020/12/08 10:06:21;;;;;;;28.00;16.70;;;4.60;99.90;;;;;;6252903;23;20256;-58
2020/12/08 10:08:48;;;;;;;28.57;16.67;;;4.70;99.90;;;;;;6251238;23;20264;-52
2020/12/08 10:11:14;;;;;;;30.60;17.60;;;4.70;99.90;;;;;;6252386;23;20174;-57
2020/12/08 10:13:41;;;;;;;29.63;17.20;;;4.70;99.90;;;;;;6251617;22;20529;-55
2020/12/08 10:16:08;;;;;;;27.57;16.57;;;4.70;99.90;;;;;;6252332;23;20233;-54
2020/12/08 10:18:35;;;;;;;29.17;17.10;;;4.80;99.90;;;;;;6252210;23;20173;-56
2020/12/08 10:21:02;;;;;;;29.67;17.80;;;4.70;99.90;;;;;;6252134;23;20182;-53
2020/12/08 10:23:29;;;;;;;28.00;16.33;;;4.70;99.90;;;;;;6251309;22;20529;-58
2020/12/08 10:25:55;;;;;;;28.83;17.00;;;4.70;99.90;;;;;;6245009;23;20257;-52
2020/12/08 10:28:22;;;;;;;29.27;17.30;;;4.80;99.90;;;;;;6245328;23;20300;-51
2020/12/08 10:30:49;;;;;;;30.27;17.30;;;4.80;99.90;;;;;;6244958;23;20179;-56
2020/12/08 10:33:16;;;;;;;27.33;16.97;;;4.80;99.90;;;;;;6245165;22;20190;-55
2020/12/08 10:35:42;;;;;;;29.33;17.03;;;4.90;99.90;;;;;;6245022;23;20206;-56
2020/12/08 10:38:11;;;;;;;32.03;17.63;;;4.90;99.90;;;;;;6245377;23;20249;-57
2020/12/08 10:40:37;;;;;;;30.20;17.83;;;5.00;99.90;;;;;;6245230;23;20273;-61
2020/12/08 10:43:03;;;;;;;31.17;17.70;;;5.10;99.90;;;;;;6244691;23;20611;-55
2020/12/08 10:45:29;;;;;;;30.10;17.73;;;5.00;99.90;;;;;;6245092;22;20201;-56
2020/12/08 10:47:56;;;;;;;31.67;17.60;;;5.10;99.90;;;;;;6245301;23;20174;-53
2020/12/08 10:50:23;;;;;;;28.70;17.33;;;5.10;99.90;;;;;;6245511;23;20183;-52
2020/12/08 10:52:49;;;;;;;30.57;18.47;;;5.10;99.90;;;;;;6244922;23;20586;-57
2020/12/08 10:55:17;;;;;;;29.27;16.80;;;5.10;99.90;;;;;;6244531;22;20204;-52
2020/12/08 10:57:43;;;;;;;28.00;16.27;;;5.10;99.90;;;;;;6244817;23;20237;-55
2020/12/08 11:00:09;;;;;;;28.33;17.43;;;5.20;99.90;;;;;;6245223;23;20257;-60
2020/12/08 11:02:36;;;;;;;29.63;16.87;;;5.30;99.90;;;;;;6245425;23;20161;-59
2020/12/08 11:05:05;;;;;;;29.07;16.40;;;5.30;99.90;;;;;;6244854;22;20269;-55
2020/12/08 11:07:32;;;;;;;29.00;16.27;;;5.30;99.90;;;;;;6244807;23;20178;-55
2020/12/08 11:09:58;;;;;;;28.13;16.60;;;5.30;99.90;;;;;;6245397;23;20174;-52
2020/12/08 11:12:24;;;;;;;27.77;17.43;;;5.30;99.90;;;;;;6244487;23;20190;-58
2020/12/08 11:14:51;;;;;;;29.60;17.50;;;5.30;99.90;;;;;;6244493;22;20195;-51
2020/12/08 11:17:17;;;;;;;29.40;16.37;;;5.30;99.90;;;;;;6244538;23;20714;-53
2020/12/08 11:19:44;;;;;;;28.33;16.97;;;5.40;99.90;;;;;;6245111;23;20174;-54
2020/12/08 11:22:11;;;;;;;27.77;16.93;;;5.40;99.90;;;;;;6244329;23;20664;-54
2020/12/08 11:24:38;;;;;;;27.83;16.30;;;5.40;99.90;;;;;;6244127;22;20229;-53
2020/12/08 11:27:05;;;;;;;30.03;16.80;;;5.50;99.90;;;;;;6244643;23;20174;-55
2020/12/08 11:29:32;;;;;;;26.80;16.63;;;5.40;99.90;;;;;;6244728;23;20182;-55
2020/12/08 11:31:58;;;;;;;31.17;18.53;;;5.40;99.90;;;;;;6245015;23;20202;-57
2020/12/08 11:34:24;;;;;;;27.00;16.63;;;5.40;99.90;;;;;;6243924;22;20273;-59
2020/12/08 11:36:55;;;;;;;31.00;18.27;;;5.50;99.90;;;;;;6244103;23;20181;-56
2020/12/08 11:39:21;;;;;;;29.67;17.40;;;5.50;99.90;;;;;;6245059;23;20241;-53
2020/12/08 11:41:48;;;;;;;30.00;16.63;;;5.60;99.90;;;;;;6244288;23;20174;-52
2020/12/08 11:44:14;;;;;;;33.53;18.43;;;5.50;99.90;;;;;;6243715;22;20194;-57
2020/12/08 11:46:41;;;;;;;33.67;18.87;;;5.60;99.90;;;;;;6244642;23;20159;-54
2020/12/08 11:49:07;;;;;;;31.00;19.07;;;5.60;99.90;;;;;;6244425;23;20532;-58
2020/12/08 11:51:34;;;;;;;31.83;18.10;;;5.60;99.90;;;;;;6244822;23;20174;-53
2020/12/08 11:54:00;;;;;;;33.17;19.67;;;5.60;99.90;;;;;;6243485;22;20674;-52
2020/12/08 11:56:26;;;;;;;32.87;19.40;;;5.60;99.90;;;;;;6244603;23;20252;-52
2020/12/08 11:58:55;;;;;;;31.40;19.10;;;5.70;99.90;;;;;;6244385;23;20178;-58
2020/12/08 12:01:23;;;;;;;31.70;19.17;;;5.70;99.90;;;;;;6244391;23;20178;-57
2020/12/08 12:03:50;;;;;;;33.80;20.20;;;5.80;99.90;;;;;;6243936;22;20265;-54
2020/12/08 12:06:16;;;;;;;35.77;21.90;;;5.80;99.90;;;;;;6244078;23;20643;-50
2020/12/08 12:08:42;;;;;;;36.37;20.30;;;5.80;99.90;;;;;;6243949;23;20669;-58
2020/12/08 12:11:09;;;;;;;33.33;19.67;;;5.80;99.90;;;;;;6244223;23;20702;-56
2020/12/08 12:13:36;;;;;;;34.80;21.23;;;5.80;99.90;;;;;;6244002;22;20274;-55
2020/12/08 12:16:03;;;;;;;32.43;19.10;;;5.70;99.90;;;;;;6244147;23;20524;-58
2020/12/08 12:18:29;;;;;;;37.13;21.80;;;5.80;99.90;;;;;;6243625;23;20178;-54
2020/12/08 12:20:55;;;;;;;36.07;21.10;;;5.80;99.90;;;;;;6243598;23;20201;-58
2020/12/08 12:23:22;;;;;;;34.90;21.43;;;5.90;99.90;;;;;;6243799;22;20178;-54
2020/12/08 12:25:48;;;;;;;37.50;22.60;;;5.90;99.90;;;;;;6243609;23;20175;-55
2020/12/08 12:28:14;;;;;;;38.03;23.67;;;6.00;99.90;;;;;;6243739;23;20165;-56
2020/12/08 12:30:41;;;;;;;38.97;23.93;;;6.10;99.90;;;;;;6243725;23;20721;-52
2020/12/08 12:33:09;;;;;;;39.50;23.67;;;6.10;99.90;;;;;;6243204;23;20198;-56
2020/12/08 12:35:35;;;;;;;38.47;24.20;;;6.00;99.90;;;;;;6243926;22;20194;-52
2020/12/08 12:38:01;;;;;;;34.90;22.53;;;6.10;99.90;;;;;;6244407;23;20492;-52
2020/12/08 12:40:28;;;;;;;37.40;22.70;;;6.20;99.90;;;;;;6243947;23;20836;-58
2020/12/08 12:42:54;;;;;;;34.37;21.97;;;6.20;99.90;;;;;;6242217;23;20177;-55
2020/12/08 12:45:20;;;;;;;33.57;21.53;;;6.00;99.90;;;;;;6242677;22;20198;-53
2020/12/08 12:47:47;;;;;;;36.23;21.80;;;6.00;99.90;;;;;;6244431;23;20265;-52
2020/12/08 12:50:14;;;;;;;36.23;22.53;;;5.80;99.90;;;;;;6242524;23;20216;-58